This is the latest recevied weather packets stored in our database for station/object N9XRG. If no packets are shown the sender has not sent any weather packets the latest 10 day(s).
| Time | Temp. | Humidity | Pressure | Rain* | Wind** | Luminosity | Snow |
|---|---|---|---|---|---|---|---|
| 1777818545 | 14.44° C | 44% | 1016 hPa | 0 mm | - | 530 W/m² | - |
| 1777818243 | 13.89° C | 44% | 1016.2 hPa | 0 mm | - | 479 W/m² | - |
| 1777817939 | 14.44° C | 46% | 1016.2 hPa | 0 mm | - | 615 W/m² | - |
| 1777817636 | 14.44° C | 47% | 1016.2 hPa | 0 mm | - | 610 W/m² | - |
| 1777817333 | 13.89° C | 47% | 1016.4 hPa | 0 mm | - | 522 W/m² | - |
| 1777817030 | 13.89° C | 45% | 1016.4 hPa | 0 mm | - | 574 W/m² | - |
| 1777816726 | 13.89° C | 45% | 1016.4 hPa | 0 mm | - | 540 W/m² | - |
| 1777816424 | 13.89° C | 46% | 1016.4 hPa | 0 mm | - | 517 W/m² | - |
| 1777816121 | 13.33° C | 47% | 1016.3 hPa | 0 mm | - | 500 W/m² | - |
| 1777815819 | 13.33° C | 46% | 1016.7 hPa | 0 mm | - | 481 W/m² | - |
| 1777815516 | 13.33° C | 47% | 1016.5 hPa | 0 mm | - | 461 W/m² | - |
| 1777815213 | 13.33° C | 47% | 1016.4 hPa | 0 mm | - | 441 W/m² | - |
| 1777814910 | 12.78° C | 48% | 1016.4 hPa | 0 mm | - | 419 W/m² | - |
| 1777814606 | 12.78° C | 48% | 1016.4 hPa | 0 mm | - | 400 W/m² | - |
| 1777814304 | 12.78° C | 47% | 1016.7 hPa | 0 mm | - | 422 W/m² | - |
| 1777814000 | 12.22° C | 50% | 1016.7 hPa | 0 mm | - | 395 W/m² | - |
| 1777813697 | 11.67° C | 50% | 1016.6 hPa | 0 mm | - | 380 W/m² | - |
| 1777813395 | 11.67° C | 51% | 1016.8 hPa | 0 mm | - | 357 W/m² | - |
| 1777813092 | 11.11° C | 51% | 1016.5 hPa | 0 mm | - | 284 W/m² | - |
| 1777812790 | 10.56° C | 53% | 1016.7 hPa | 0 mm | - | 229 W/m² | - |
| 1777812486 | 10° C | 56% | 1016.7 hPa | 0 mm | - | 229 W/m² | - |
| 1777812184 | 9.44° C | 57% | 1016.6 hPa | 0 mm | - | 250 W/m² | - |
| 1777811882 | 8.89° C | 60% | 1016.7 hPa | 0 mm | - | 208 W/m² | - |
| 1777811580 | 7.78° C | 63% | 1016.9 hPa | 0 mm | - | 120 W/m² | - |
| 1777811275 | 7.78° C | 64% | 1017 hPa | 0 mm | - | 91 W/m² | - |
* Rain latest hour (hover to see other rain measurements)
** Current wind speed in m/s (hover to see current wind gust speed)